Airfield :
LOGIN :

Register | Disclaimer

   EN    FR    IT 

 










Legend :    VFR   Marginal VFR   IFR   Intensive IFR   Very Intensive IFR
Visi :
Ceiling :
>= 8 km
>= 3000ft
5 to 8 km
1000 to 3000 ft
1500m to 5 km
500 to 1000 ft
800 to 1500m
200 to 500 ft
< 800m
< 200 ft
Symbols :   Thunderstorms  Fog  Heavy snow  Heavy precipitations  Wind > 20 kt
SIGMETs :     Misc.  Thunderstorms  Icing  Turbulence  Mountain Waves  Volcanic Ashes







- Airport Elevation : 1682 ft
- IATA code : VIT


LEVT - Vitoria Gasteiz

CURRENT METAR :
  • 180430Z 00000KT 8000 3000E FEW014 15/15 Q1016

EXPIRED METARs :
  • 180400Z 00000KT 9999 FEW016 15/15 Q1016
  • 180330Z 01004KT 9999 FEW024 16/15 Q1016
  • 180300Z 03004KT 9999 FEW020 16/15 Q1017
  • 180230Z 02003KT 320V070 9999 FEW020 16/15 Q1017
  • 180200Z VRB01KT 9999 FEW014 SCT021 16/15 Q1017

TAF TAF LEVT
Valid from the 18 at 00:00 until the 19 at 00:00 UTC


172300Z 1800/1824 01007KT 9999 SCT018 BKN025 TX29/1815Z TN16/1805Z
TEMPO 1800/1808 BKN014
PROB40
TEMPO 1802/1807 4000 BR BKN006
PROB30
TEMPO 1803/1806 0600 FG VV001
PROB40
TEMPO 1810/1814 16010KT SHRA SCT030TCU
TEMPO 1814/1819 SHRA SCT030TCU
PROB40
TEMPO 1814/1818 VRB15G25KT SHRA TS BKN025CB
No reported NOTAMs for that airfield.



MET'MAP, your aeronautical weather chart ! - Copyright ORBIFLY December 2007 - Disclaimer

ORBIFLY MET'MAP TEAM :

Programming & Development : Alexandra Zaïnal
Concept & Development : Baudouin d'Aumeries
Co-Development & Prog : Marc-Olivier Méhu
Technical & hardware support : Manuel Goepfert

Contact : metmap@orbifly.com




SOURCES & CREDITS :

   NOAA